메인 페이지
METAR-TAF:

METAR-TAF

공항 :

니노이 아키노 국제공항

마닐라, 필리핀

위도: 14-31N, 경도: 121-00E, 고도: 14m

현재 날씨관측

예보는 43분 전, 21:00시(UTC)에 발표되었습니다.
북동2kt
온도 28°C
습도 84%
기압 1010 hPa
시정 10km 이상
고도 2500ft 상공 구름 조금
고도 10000ft 상공 구름 많음

METAR: RPLL 222100Z 04002KT 9999 FEW025 BKN100 28/25 Q1010 NOSIG RMK A2983

시각: 05:43 (21:43 UTC)

예보

예보는 4 시간 43분 전, 17:00시(UTC)에 발표되었습니다.
예보 대상 시간: 22일 18시부터 23일 24시까지 (UTC)
동남동6kt
시정 10km 이상
고도 2500ft 상공 구름 조금
고도 30000ft 상공 구름 보통
일시적
22일 18시부터 22일 24시까지 (UTC)
5kt
고도 2200ft 상공 구름 조금, 적란운.
고도 2300ft 상공 구름 조금
고도 10000ft 상공 구름 많음
일시적
23일 00시부터 23일 06시까지 (UTC)
남동10kt
고도 2300ft 상공 구름 조금, 적란운.
고도 10000ft 상공 구름 보통

TAF: RPLL 221700Z 2218/2324 11006KT 9999 FEW025 SCT300 TX36/2306Z TN28/2222Z TEMPO 2218/2224 09005KT FEW022CB FEW023 BKN100 TEMPO 2300/2306 13010KT FEW023CB SCT100

4,000개 이상의 공항 관측 자료 및 예보 (METAR 및 TAF 보고).

지도상에서 검색 가능한 기상관측소가 노란 점과 빨간 점으로 표시되어 있습니다.

기상관측소 명을 보려면 표시 위로 마우스를 이동하세요.

날씨 관측과 예보를 보려면 클릭하세요.

지도 변경 : 확대하려면 엑스 표시가 있는 녹색 버튼, 축소하려면 빼기 표시가 있는 녹색 버튼, 다음 페이지의 지도를 보려면 녹색 화살표를 클릭하세요.


METAR-TAF: